sensor_id;sensor_type;location;lat;lon;timestamp;temperature;humidity
14614;DHT22;7393;51.446;6.800;2024-03-06T00:01:31;5.20;74.70
14614;DHT22;7393;51.446;6.800;2024-03-06T00:03:59;5.30;45.70
14614;DHT22;7393;51.446;6.800;2024-03-06T00:06:27;5.20;26.90
14614;DHT22;7393;51.446;6.800;2024-03-06T00:08:54;5.20;10.70
14614;DHT22;7393;51.446;6.800;2024-03-06T00:11:21;5.20;1.00
14614;DHT22;7393;51.446;6.800;2024-03-06T00:13:47;5.20;1.00
14614;DHT22;7393;51.446;6.800;2024-03-06T00:16:14;5.10;1.00
14614;DHT22;7393;51.446;6.800;2024-03-06T00:18:41;5.20;1.00
14614;DHT22;7393;51.446;6.800;2024-03-06T00:21:08;5.10;1.00
14614;DHT22;7393;51.446;6.800;2024-03-06T00:23:37;5.10;1.00
14614;DHT22;7393;51.446;6.800;2024-03-06T00:26:04;5.00;1.00
14614;DHT22;7393;51.446;6.800;2024-03-06T00:28:31;5.00;1.00
14614;DHT22;7393;51.446;6.800;2024-03-06T00:30:58;5.00;1.00
14614;DHT22;7393;51.446;6.800;2024-03-06T00:33:24;4.90;1.00
14614;DHT22;7393;51.446;6.800;2024-03-06T00:35:51;4.90;1.00
14614;DHT22;7393;51.446;6.800;2024-03-06T00:38:18;4.90;1.00
14614;DHT22;7393;51.446;6.800;2024-03-06T00:40:46;4.90;1.00
14614;DHT22;7393;51.446;6.800;2024-03-06T00:43:13;4.80;1.00
14614;DHT22;7393;51.446;6.800;2024-03-06T00:45:40;4.90;1.00
14614;DHT22;7393;51.446;6.800;2024-03-06T00:48:07;4.90;1.00
14614;DHT22;7393;51.446;6.800;2024-03-06T00:50:34;4.90;1.00
14614;DHT22;7393;51.446;6.800;2024-03-06T00:53:01;4.90;1.00
14614;DHT22;7393;51.446;6.800;2024-03-06T00:55:28;4.80;1.00
14614;DHT22;7393;51.446;6.800;2024-03-06T00:57:56;4.80;1.00
14614;DHT22;7393;51.446;6.800;2024-03-06T01:00:23;4.80;1.00
14614;DHT22;7393;51.446;6.800;2024-03-06T01:02:50;4.80;1.00
14614;DHT22;7393;51.446;6.800;2024-03-06T01:05:17;4.70;1.00
14614;DHT22;7393;51.446;6.800;2024-03-06T01:07:43;4.70;1.00
14614;DHT22;7393;51.446;6.800;2024-03-06T01:10:10;4.70;1.00
14614;DHT22;7393;51.446;6.800;2024-03-06T01:12:37;4.60;1.00
14614;DHT22;7393;51.446;6.800;2024-03-06T01:15:06;4.60;1.00
14614;DHT22;7393;51.446;6.800;2024-03-06T01:17:33;4.60;1.00
14614;DHT22;7393;51.446;6.800;2024-03-06T01:20:00;4.60;1.00
14614;DHT22;7393;51.446;6.800;2024-03-06T01:22:28;4.50;1.00
14614;DHT22;7393;51.446;6.800;2024-03-06T01:24:55;4.50;1.00
14614;DHT22;7393;51.446;6.800;2024-03-06T01:27:21;4.50;1.00
14614;DHT22;7393;51.446;6.800;2024-03-06T01:29:48;4.50;1.00
14614;DHT22;7393;51.446;6.800;2024-03-06T01:32:16;4.40;1.00
14614;DHT22;7393;51.446;6.800;2024-03-06T01:34:43;4.40;1.00
14614;DHT22;7393;51.446;6.800;2024-03-06T01:37:10;4.40;1.00
14614;DHT22;7393;51.446;6.800;2024-03-06T01:39:37;4.40;1.00
14614;DHT22;7393;51.446;6.800;2024-03-06T01:42:03;4.30;1.00
14614;DHT22;7393;51.446;6.800;2024-03-06T01:44:30;4.40;1.00
14614;DHT22;7393;51.446;6.800;2024-03-06T01:46:57;4.30;1.00
14614;DHT22;7393;51.446;6.800;2024-03-06T01:49:26;4.30;1.00
14614;DHT22;7393;51.446;6.800;2024-03-06T01:51:55;4.30;1.00
14614;DHT22;7393;51.446;6.800;2024-03-06T01:54:23;4.30;1.00
14614;DHT22;7393;51.446;6.800;2024-03-06T01:56:51;4.30;1.00
14614;DHT22;7393;51.446;6.800;2024-03-06T01:59:21;4.30;1.00
14614;DHT22;7393;51.446;6.800;2024-03-06T02:01:53;4.30;1.00
14614;DHT22;7393;51.446;6.800;2024-03-06T02:04:20;4.30;1.00
14614;DHT22;7393;51.446;6.800;2024-03-06T02:06:48;4.30;1.00
14614;DHT22;7393;51.446;6.800;2024-03-06T02:09:15;4.30;1.00
14614;DHT22;7393;51.446;6.800;2024-03-06T02:11:42;4.30;1.00
14614;DHT22;7393;51.446;6.800;2024-03-06T02:14:11;4.30;1.00
14614;DHT22;7393;51.446;6.800;2024-03-06T02:16:38;4.20;27.70
14614;DHT22;7393;51.446;6.800;2024-03-06T02:19:05;4.20;14.90
14614;DHT22;7393;51.446;6.800;2024-03-06T02:21:33;4.30;65.30
14614;DHT22;7393;51.446;6.800;2024-03-06T02:24:00;4.20;79.20
14614;DHT22;7393;51.446;6.800;2024-03-06T02:26:28;4.20;99.90
14614;DHT22;7393;51.446;6.800;2024-03-06T02:28:55;4.20;99.90
14614;DHT22;7393;51.446;6.800;2024-03-06T02:31:22;4.20;77.10
14614;DHT22;7393;51.446;6.800;2024-03-06T02:33:49;4.20;35.40
14614;DHT22;7393;51.446;6.800;2024-03-06T02:36:17;4.20;16.60
14614;DHT22;7393;51.446;6.800;2024-03-06T02:38:45;4.20;1.00
14614;DHT22;7393;51.446;6.800;2024-03-06T02:41:12;4.20;1.00
14614;DHT22;7393;51.446;6.800;2024-03-06T02:43:41;4.20;1.00
14614;DHT22;7393;51.446;6.800;2024-03-06T02:46:08;4.20;1.00
14614;DHT22;7393;51.446;6.800;2024-03-06T02:48:35;4.10;1.00
14614;DHT22;7393;51.446;6.800;2024-03-06T02:51:02;4.10;1.00
14614;DHT22;7393;51.446;6.800;2024-03-06T02:53:28;4.10;1.00
14614;DHT22;7393;51.446;6.800;2024-03-06T02:55:57;4.10;1.00
14614;DHT22;7393;51.446;6.800;2024-03-06T02:58:23;4.10;1.00
14614;DHT22;7393;51.446;6.800;2024-03-06T03:00:50;4.00;1.00
14614;DHT22;7393;51.446;6.800;2024-03-06T03:03:17;4.00;1.00
14614;DHT22;7393;51.446;6.800;2024-03-06T03:05:44;4.00;1.00
14614;DHT22;7393;51.446;6.800;2024-03-06T03:08:10;4.00;1.00
14614;DHT22;7393;51.446;6.800;2024-03-06T03:10:37;4.00;1.00
14614;DHT22;7393;51.446;6.800;2024-03-06T03:13:05;3.90;1.00
14614;DHT22;7393;51.446;6.800;2024-03-06T03:15:33;3.90;1.00
14614;DHT22;7393;51.446;6.800;2024-03-06T03:17:59;3.90;1.00
14614;DHT22;7393;51.446;6.800;2024-03-06T03:20:26;3.90;1.00
14614;DHT22;7393;51.446;6.800;2024-03-06T03:22:53;3.90;1.00
14614;DHT22;7393;51.446;6.800;2024-03-06T03:25:20;3.90;1.00
14614;DHT22;7393;51.446;6.800;2024-03-06T03:27:47;3.80;1.00
14614;DHT22;7393;51.446;6.800;2024-03-06T03:30:15;3.80;1.00
14614;DHT22;7393;51.446;6.800;2024-03-06T03:32:42;3.80;1.00
14614;DHT22;7393;51.446;6.800;2024-03-06T03:35:09;3.80;1.00
14614;DHT22;7393;51.446;6.800;2024-03-06T03:37:36;3.80;1.00
14614;DHT22;7393;51.446;6.800;2024-03-06T03:40:03;3.80;1.00
14614;DHT22;7393;51.446;6.800;2024-03-06T03:42:30;3.80;1.00
14614;DHT22;7393;51.446;6.800;2024-03-06T03:44:56;3.70;1.00
14614;DHT22;7393;51.446;6.800;2024-03-06T03:47:24;3.70;1.00
14614;DHT22;7393;51.446;6.800;2024-03-06T03:49:51;3.70;1.00
14614;DHT22;7393;51.446;6.800;2024-03-06T03:52:18;3.60;1.00
14614;DHT22;7393;51.446;6.800;2024-03-06T03:54:44;3.60;1.00
14614;DHT22;7393;51.446;6.800;2024-03-06T03:57:11;3.60;1.00
14614;DHT22;7393;51.446;6.800;2024-03-06T03:59:39;3.60;1.00
14614;DHT22;7393;51.446;6.800;2024-03-06T04:02:06;3.60;1.00
14614;DHT22;7393;51.446;6.800;2024-03-06T04:04:35;3.60;1.00
14614;DHT22;7393;51.446;6.800;2024-03-06T04:07:02;3.60;1.00
14614;DHT22;7393;51.446;6.800;2024-03-06T04:09:29;3.50;1.00
14614;DHT22;7393;51.446;6.800;2024-03-06T04:11:55;3.50;1.00
14614;DHT22;7393;51.446;6.800;2024-03-06T04:14:22;3.50;1.00
14614;DHT22;7393;51.446;6.800;2024-03-06T04:16:49;3.50;1.00
14614;DHT22;7393;51.446;6.800;2024-03-06T04:19:16;3.50;1.00
14614;DHT22;7393;51.446;6.800;2024-03-06T04:21:44;3.50;1.00
14614;DHT22;7393;51.446;6.800;2024-03-06T04:24:11;3.40;1.00
14614;DHT22;7393;51.446;6.800;2024-03-06T04:26:37;3.50;1.00
14614;DHT22;7393;51.446;6.800;2024-03-06T04:29:04;3.40;1.00
14614;DHT22;7393;51.446;6.800;2024-03-06T04:31:31;3.40;1.00
14614;DHT22;7393;51.446;6.800;2024-03-06T04:33:58;3.40;1.00
14614;DHT22;7393;51.446;6.800;2024-03-06T04:36:24;3.40;1.00
14614;DHT22;7393;51.446;6.800;2024-03-06T04:38:53;3.40;1.00
14614;DHT22;7393;51.446;6.800;2024-03-06T04:41:19;3.40;1.00
14614;DHT22;7393;51.446;6.800;2024-03-06T04:43:46;3.40;1.00
14614;DHT22;7393;51.446;6.800;2024-03-06T04:46:13;3.40;1.00
14614;DHT22;7393;51.446;6.800;2024-03-06T04:48:40;3.40;1.00
14614;DHT22;7393;51.446;6.800;2024-03-06T04:51:07;3.40;1.00
14614;DHT22;7393;51.446;6.800;2024-03-06T04:53:35;3.40;1.00
14614;DHT22;7393;51.446;6.800;2024-03-06T04:56:03;3.40;1.00
14614;DHT22;7393;51.446;6.800;2024-03-06T04:58:30;3.30;1.00
14614;DHT22;7393;51.446;6.800;2024-03-06T05:00:57;3.30;1.00
14614;DHT22;7393;51.446;6.800;2024-03-06T05:03:24;3.40;1.00
14614;DHT22;7393;51.446;6.800;2024-03-06T05:05:51;3.30;1.00
14614;DHT22;7393;51.446;6.800;2024-03-06T05:08:18;3.40;1.00
14614;DHT22;7393;51.446;6.800;2024-03-06T05:10:46;3.40;1.00
14614;DHT22;7393;51.446;6.800;2024-03-06T05:13:14;3.40;1.00
14614;DHT22;7393;51.446;6.800;2024-03-06T05:15:40;3.30;1.00
14614;DHT22;7393;51.446;6.800;2024-03-06T05:18:08;3.40;1.00
14614;DHT22;7393;51.446;6.800;2024-03-06T05:20:34;3.30;1.00
14614;DHT22;7393;51.446;6.800;2024-03-06T05:23:01;3.30;1.00
14614;DHT22;7393;51.446;6.800;2024-03-06T05:25:28;3.30;1.00
14614;DHT22;7393;51.446;6.800;2024-03-06T05:27:57;3.20;1.00
14614;DHT22;7393;51.446;6.800;2024-03-06T05:30:26;3.30;1.00
14614;DHT22;7393;51.446;6.800;2024-03-06T05:32:54;3.30;1.00
14614;DHT22;7393;51.446;6.800;2024-03-06T05:35:21;3.20;1.00
14614;DHT22;7393;51.446;6.800;2024-03-06T05:37:48;3.20;1.00
14614;DHT22;7393;51.446;6.800;2024-03-06T05:40:14;3.20;1.00
14614;DHT22;7393;51.446;6.800;2024-03-06T05:42:41;3.20;1.00
14614;DHT22;7393;51.446;6.800;2024-03-06T05:45:09;3.20;1.00
14614;DHT22;7393;51.446;6.800;2024-03-06T05:47:39;3.10;1.00
14614;DHT22;7393;51.446;6.800;2024-03-06T05:50:07;3.10;1.00
14614;DHT22;7393;51.446;6.800;2024-03-06T05:52:36;3.10;1.00
14614;DHT22;7393;51.446;6.800;2024-03-06T05:55:04;3.10;1.00
14614;DHT22;7393;51.446;6.800;2024-03-06T05:57:31;3.10;1.00
14614;DHT22;7393;51.446;6.800;2024-03-06T05:59:58;3.10;1.00
14614;DHT22;7393;51.446;6.800;2024-03-06T06:02:25;3.10;1.00
14614;DHT22;7393;51.446;6.800;2024-03-06T06:04:54;3.10;1.00
14614;DHT22;7393;51.446;6.800;2024-03-06T06:07:21;3.10;1.00
14614;DHT22;7393;51.446;6.800;2024-03-06T06:09:47;3.10;1.00
14614;DHT22;7393;51.446;6.800;2024-03-06T06:12:14;3.20;1.00
14614;DHT22;7393;51.446;6.800;2024-03-06T06:14:41;3.20;1.00
14614;DHT22;7393;51.446;6.800;2024-03-06T06:17:07;3.20;1.00
14614;DHT22;7393;51.446;6.800;2024-03-06T06:19:34;3.20;1.00
14614;DHT22;7393;51.446;6.800;2024-03-06T06:22:02;3.20;1.00
14614;DHT22;7393;51.446;6.800;2024-03-06T06:24:29;3.20;66.80
14614;DHT22;7393;51.446;6.800;2024-03-06T06:26:56;3.20;99.90
14614;DHT22;7393;51.446;6.800;2024-03-06T06:29:23;3.30;99.90
14614;DHT22;7393;51.446;6.800;2024-03-06T06:31:49;3.30;99.90
14614;DHT22;7393;51.446;6.800;2024-03-06T06:34:16;3.30;99.90
14614;DHT22;7393;51.446;6.800;2024-03-06T06:36:45;3.40;99.90
14614;DHT22;7393;51.446;6.800;2024-03-06T06:39:13;3.40;99.90
14614;DHT22;7393;51.446;6.800;2024-03-06T06:41:42;3.40;99.90
14614;DHT22;7393;51.446;6.800;2024-03-06T06:44:09;3.40;1.00
14614;DHT22;7393;51.446;6.800;2024-03-06T06:46:35;3.50;1.00
14614;DHT22;7393;51.446;6.800;2024-03-06T06:49:02;3.50;1.00
14614;DHT22;7393;51.446;6.800;2024-03-06T06:51:29;3.50;1.00
14614;DHT22;7393;51.446;6.800;2024-03-06T06:53:56;3.50;1.00
14614;DHT22;7393;51.446;6.800;2024-03-06T06:56:24;3.60;79.30
14614;DHT22;7393;51.446;6.800;2024-03-06T06:58:51;3.60;99.90
14614;DHT22;7393;51.446;6.800;2024-03-06T07:01:18;3.70;99.90
14614;DHT22;7393;51.446;6.800;2024-03-06T07:03:45;3.70;1.00
14614;DHT22;7393;51.446;6.800;2024-03-06T07:06:12;3.80;1.00
14614;DHT22;7393;51.446;6.800;2024-03-06T07:08:39;3.90;1.00
14614;DHT22;7393;51.446;6.800;2024-03-06T07:11:06;3.90;99.90
14614;DHT22;7393;51.446;6.800;2024-03-06T07:13:34;3.90;1.00
14614;DHT22;7393;51.446;6.800;2024-03-06T07:16:02;4.00;99.90
14614;DHT22;7393;51.446;6.800;2024-03-06T07:18:29;4.00;1.00
14614;DHT22;7393;51.446;6.800;2024-03-06T07:20:56;4.10;99.90
14614;DHT22;7393;51.446;6.800;2024-03-06T07:23:23;4.10;7.70
14614;DHT22;7393;51.446;6.800;2024-03-06T07:25:50;4.20;99.90
14614;DHT22;7393;51.446;6.800;2024-03-06T07:28:16;4.20;1.00
14614;DHT22;7393;51.446;6.800;2024-03-06T07:30:45;4.30;1.00
14614;DHT22;7393;51.446;6.800;2024-03-06T07:33:12;4.40;99.90
14614;DHT22;7393;51.446;6.800;2024-03-06T07:35:39;4.40;99.90
14614;DHT22;7393;51.446;6.800;2024-03-06T07:38:06;4.50;1.00
14614;DHT22;7393;51.446;6.800;2024-03-06T07:40:33;4.50;1.00
14614;DHT22;7393;51.446;6.800;2024-03-06T07:43:00;4.60;1.00
14614;DHT22;7393;51.446;6.800;2024-03-06T07:45:26;4.60;1.00
14614;DHT22;7393;51.446;6.800;2024-03-06T07:47:54;4.70;1.00
14614;DHT22;7393;51.446;6.800;2024-03-06T07:50:21;4.80;99.90
14614;DHT22;7393;51.446;6.800;2024-03-06T07:52:48;4.80;1.00
14614;DHT22;7393;51.446;6.800;2024-03-06T07:55:15;4.90;99.90
14614;DHT22;7393;51.446;6.800;2024-03-06T07:57:44;5.00;99.90
14614;DHT22;7393;51.446;6.800;2024-03-06T08:00:11;5.10;32.90
14614;DHT22;7393;51.446;6.800;2024-03-06T08:02:40;5.20;1.00
14614;DHT22;7393;51.446;6.800;2024-03-06T08:05:10;5.30;1.00
14614;DHT22;7393;51.446;6.800;2024-03-06T08:07:38;5.40;1.00
14614;DHT22;7393;51.446;6.800;2024-03-06T08:10:08;5.50;99.90
14614;DHT22;7393;51.446;6.800;2024-03-06T08:12:38;5.60;99.90
14614;DHT22;7393;51.446;6.800;2024-03-06T08:15:06;5.70;99.90
14614;DHT22;7393;51.446;6.800;2024-03-06T08:17:35;5.90;1.00
14614;DHT22;7393;51.446;6.800;2024-03-06T08:20:01;6.00;1.00
14614;DHT22;7393;51.446;6.800;2024-03-06T08:22:30;6.20;1.00
14614;DHT22;7393;51.446;6.800;2024-03-06T08:24:56;6.30;1.00
14614;DHT22;7393;51.446;6.800;2024-03-06T08:27:23;6.40;1.00
14614;DHT22;7393;51.446;6.800;2024-03-06T08:29:50;6.50;1.00
14614;DHT22;7393;51.446;6.800;2024-03-06T08:32:17;6.60;1.00
14614;DHT22;7393;51.446;6.800;2024-03-06T08:34:44;6.70;1.00
14614;DHT22;7393;51.446;6.800;2024-03-06T08:37:10;6.80;1.00
14614;DHT22;7393;51.446;6.800;2024-03-06T08:39:39;7.00;99.90
14614;DHT22;7393;51.446;6.800;2024-03-06T08:42:06;7.00;1.00
14614;DHT22;7393;51.446;6.800;2024-03-06T08:44:34;7.00;1.00
14614;DHT22;7393;51.446;6.800;2024-03-06T08:47:01;7.10;1.00
14614;DHT22;7393;51.446;6.800;2024-03-06T08:49:27;7.10;1.00
14614;DHT22;7393;51.446;6.800;2024-03-06T08:51:54;7.20;1.00
14614;DHT22;7393;51.446;6.800;2024-03-06T08:54:22;7.20;1.00
14614;DHT22;7393;51.446;6.800;2024-03-06T08:56:50;7.40;1.00
14614;DHT22;7393;51.446;6.800;2024-03-06T08:59:19;7.40;99.90
14614;DHT22;7393;51.446;6.800;2024-03-06T09:01:45;7.40;1.00
14614;DHT22;7393;51.446;6.800;2024-03-06T09:04:13;7.40;99.90
14614;DHT22;7393;51.446;6.800;2024-03-06T09:06:39;7.50;1.00
14614;DHT22;7393;51.446;6.800;2024-03-06T09:09:06;7.50;1.00
14614;DHT22;7393;51.446;6.800;2024-03-06T09:11:34;7.50;99.90
14614;DHT22;7393;51.446;6.800;2024-03-06T09:14:03;7.50;1.00
14614;DHT22;7393;51.446;6.800;2024-03-06T09:16:30;7.50;1.00
14614;DHT22;7393;51.446;6.800;2024-03-06T09:18:56;7.50;99.90
14614;DHT22;7393;51.446;6.800;2024-03-06T09:21:23;7.50;1.00
14614;DHT22;7393;51.446;6.800;2024-03-06T09:23:51;7.70;1.00
14614;DHT22;7393;51.446;6.800;2024-03-06T09:26:17;7.70;1.00
14614;DHT22;7393;51.446;6.800;2024-03-06T09:28:46;7.70;99.90
14614;DHT22;7393;51.446;6.800;2024-03-06T09:31:15;7.70;1.00
14614;DHT22;7393;51.446;6.800;2024-03-06T09:33:42;7.70;1.00
14614;DHT22;7393;51.446;6.800;2024-03-06T09:36:10;7.70;1.00
14614;DHT22;7393;51.446;6.800;2024-03-06T09:38:38;7.80;1.00
14614;DHT22;7393;51.446;6.800;2024-03-06T09:41:07;7.80;1.00
14614;DHT22;7393;51.446;6.800;2024-03-06T09:43:34;7.90;1.00
14614;DHT22;7393;51.446;6.800;2024-03-06T09:46:01;7.90;1.00
14614;DHT22;7393;51.446;6.800;2024-03-06T09:48:30;7.90;1.00
14614;DHT22;7393;51.446;6.800;2024-03-06T09:51:01;7.90;1.00
14614;DHT22;7393;51.446;6.800;2024-03-06T09:53:28;8.00;1.00
14614;DHT22;7393;51.446;6.800;2024-03-06T09:55:56;8.00;1.00
14614;DHT22;7393;51.446;6.800;2024-03-06T09:58:24;8.10;1.00
14614;DHT22;7393;51.446;6.800;2024-03-06T10:00:51;8.20;95.90
14614;DHT22;7393;51.446;6.800;2024-03-06T10:03:19;8.20;1.00
14614;DHT22;7393;51.446;6.800;2024-03-06T10:05:48;8.20;1.00
14614;DHT22;7393;51.446;6.800;2024-03-06T10:08:14;8.30;1.00
14614;DHT22;7393;51.446;6.800;2024-03-06T10:10:42;8.30;1.00
14614;DHT22;7393;51.446;6.800;2024-03-06T10:13:11;8.40;1.00
14614;DHT22;7393;51.446;6.800;2024-03-06T10:15:38;8.50;1.00
14614;DHT22;7393;51.446;6.800;2024-03-06T10:18:15;8.60;99.90
14614;DHT22;7393;51.446;6.800;2024-03-06T10:20:43;8.60;99.90
14614;DHT22;7393;51.446;6.800;2024-03-06T10:23:12;8.70;99.90
14614;DHT22;7393;51.446;6.800;2024-03-06T10:25:39;8.80;99.90
14614;DHT22;7393;51.446;6.800;2024-03-06T10:28:06;9.00;99.90
14614;DHT22;7393;51.446;6.800;2024-03-06T10:30:34;9.00;1.00
14614;DHT22;7393;51.446;6.800;2024-03-06T10:33:02;9.10;1.00
14614;DHT22;7393;51.446;6.800;2024-03-06T10:35:29;9.10;99.90
14614;DHT22;7393;51.446;6.800;2024-03-06T10:37:56;9.20;99.90
14614;DHT22;7393;51.446;6.800;2024-03-06T10:40:25;9.20;1.00
14614;DHT22;7393;51.446;6.800;2024-03-06T10:42:55;9.30;99.90
14614;DHT22;7393;51.446;6.800;2024-03-06T10:45:25;9.40;99.90
14614;DHT22;7393;51.446;6.800;2024-03-06T10:47:56;9.50;99.90
14614;DHT22;7393;51.446;6.800;2024-03-06T10:50:24;9.50;1.00
14614;DHT22;7393;51.446;6.800;2024-03-06T10:52:53;9.60;1.00
14614;DHT22;7393;51.446;6.800;2024-03-06T10:55:20;9.70;1.00
14614;DHT22;7393;51.446;6.800;2024-03-06T10:57:51;9.70;99.90
14614;DHT22;7393;51.446;6.800;2024-03-06T11:00:19;9.80;1.00
14614;DHT22;7393;51.446;6.800;2024-03-06T11:02:46;9.80;1.00
14614;DHT22;7393;51.446;6.800;2024-03-06T11:05:15;9.80;99.90
14614;DHT22;7393;51.446;6.800;2024-03-06T11:07:42;9.80;99.90
14614;DHT22;7393;51.446;6.800;2024-03-06T11:10:09;9.80;99.90
14614;DHT22;7393;51.446;6.800;2024-03-06T11:12:42;9.90;99.90
14614;DHT22;7393;51.446;6.800;2024-03-06T11:15:14;10.00;99.90
14614;DHT22;7393;51.446;6.800;2024-03-06T11:17:42;10.00;99.90
14614;DHT22;7393;51.446;6.800;2024-03-06T11:20:16;10.10;99.90
14614;DHT22;7393;51.446;6.800;2024-03-06T11:23:02;10.30;99.90
14614;DHT22;7393;51.446;6.800;2024-03-06T11:25:56;10.40;99.90
14614;DHT22;7393;51.446;6.800;2024-03-06T11:28:25;10.50;99.90
14614;DHT22;7393;51.446;6.800;2024-03-06T11:30:57;10.60;99.90
14614;DHT22;7393;51.446;6.800;2024-03-06T11:33:33;10.70;99.90
14614;DHT22;7393;51.446;6.800;2024-03-06T11:36:18;10.70;48.20
14614;DHT22;7393;51.446;6.800;2024-03-06T11:38:52;10.80;41.50
14614;DHT22;7393;51.446;6.800;2024-03-06T11:41:20;11.00;31.70
14614;DHT22;7393;51.446;6.800;2024-03-06T11:43:48;11.10;1.00
14614;DHT22;7393;51.446;6.800;2024-03-06T11:46:20;11.20;1.00
14614;DHT22;7393;51.446;6.800;2024-03-06T11:48:54;11.20;1.00
14614;DHT22;7393;51.446;6.800;2024-03-06T11:51:21;11.30;1.00
14614;DHT22;7393;51.446;6.800;2024-03-06T11:53:52;11.40;1.00
14614;DHT22;7393;51.446;6.800;2024-03-06T11:56:19;11.50;1.00
14614;DHT22;7393;51.446;6.800;2024-03-06T11:58:46;11.60;1.00
14614;DHT22;7393;51.446;6.800;2024-03-06T12:01:14;11.80;1.00
14614;DHT22;7393;51.446;6.800;2024-03-06T12:03:43;12.00;1.00
14614;DHT22;7393;51.446;6.800;2024-03-06T12:06:10;12.00;1.00
14614;DHT22;7393;51.446;6.800;2024-03-06T12:08:38;12.10;1.00
14614;DHT22;7393;51.446;6.800;2024-03-06T12:11:06;12.20;1.00
14614;DHT22;7393;51.446;6.800;2024-03-06T12:13:33;12.40;1.00
14614;DHT22;7393;51.446;6.800;2024-03-06T12:16:04;12.50;1.00
14614;DHT22;7393;51.446;6.800;2024-03-06T12:18:31;12.70;1.00
14614;DHT22;7393;51.446;6.800;2024-03-06T12:21:01;12.90;1.00
14614;DHT22;7393;51.446;6.800;2024-03-06T12:23:29;13.10;1.00
14614;DHT22;7393;51.446;6.800;2024-03-06T12:26:06;13.20;1.00
14614;DHT22;7393;51.446;6.800;2024-03-06T12:28:34;13.30;1.00
14614;DHT22;7393;51.446;6.800;2024-03-06T12:31:02;13.40;1.00
14614;DHT22;7393;51.446;6.800;2024-03-06T12:33:30;13.50;1.00
14614;DHT22;7393;51.446;6.800;2024-03-06T12:36:06;13.60;1.00
14614;DHT22;7393;51.446;6.800;2024-03-06T12:38:36;13.80;1.00
14614;DHT22;7393;51.446;6.800;2024-03-06T12:41:03;13.90;1.00
14614;DHT22;7393;51.446;6.800;2024-03-06T12:43:31;14.00;1.00
14614;DHT22;7393;51.446;6.800;2024-03-06T12:46:00;14.00;1.00
14614;DHT22;7393;51.446;6.800;2024-03-06T12:48:28;14.00;1.00
14614;DHT22;7393;51.446;6.800;2024-03-06T12:50:55;14.00;99.90
14614;DHT22;7393;51.446;6.800;2024-03-06T12:53:31;14.00;99.90
14614;DHT22;7393;51.446;6.800;2024-03-06T12:55:58;14.10;99.90
14614;DHT22;7393;51.446;6.800;2024-03-06T12:58:25;14.00;99.90
14614;DHT22;7393;51.446;6.800;2024-03-06T13:00:52;14.00;99.90
14614;DHT22;7393;51.446;6.800;2024-03-06T13:03:20;13.90;99.90
14614;DHT22;7393;51.446;6.800;2024-03-06T13:05:47;13.80;99.90
14614;DHT22;7393;51.446;6.800;2024-03-06T13:08:13;13.70;99.90
14614;DHT22;7393;51.446;6.800;2024-03-06T13:10:42;13.80;99.90
14614;DHT22;7393;51.446;6.800;2024-03-06T13:13:10;13.80;99.90
14614;DHT22;7393;51.446;6.800;2024-03-06T13:15:37;13.90;99.90
14614;DHT22;7393;51.446;6.800;2024-03-06T13:18:04;14.10;99.90
14614;DHT22;7393;51.446;6.800;2024-03-06T13:20:31;14.20;99.90
14614;DHT22;7393;51.446;6.800;2024-03-06T13:22:58;14.30;99.90
14614;DHT22;7393;51.446;6.800;2024-03-06T13:25:25;14.40;99.90
14614;DHT22;7393;51.446;6.800;2024-03-06T13:27:53;14.50;99.90
14614;DHT22;7393;51.446;6.800;2024-03-06T13:30:20;14.60;99.90
14614;DHT22;7393;51.446;6.800;2024-03-06T13:32:47;14.80;99.90
14614;DHT22;7393;51.446;6.800;2024-03-06T13:35:14;14.90;99.90
14614;DHT22;7393;51.446;6.800;2024-03-06T13:37:42;14.90;99.90
14614;DHT22;7393;51.446;6.800;2024-03-06T13:40:10;15.00;99.90
14614;DHT22;7393;51.446;6.800;2024-03-06T13:42:39;15.00;99.90
14614;DHT22;7393;51.446;6.800;2024-03-06T13:45:08;15.00;99.90
14614;DHT22;7393;51.446;6.800;2024-03-06T13:47:37;15.00;99.90
14614;DHT22;7393;51.446;6.800;2024-03-06T13:50:06;14.90;99.90
14614;DHT22;7393;51.446;6.800;2024-03-06T13:52:34;14.90;99.90
14614;DHT22;7393;51.446;6.800;2024-03-06T13:55:00;14.90;99.90
14614;DHT22;7393;51.446;6.800;2024-03-06T13:57:30;14.80;99.90
14614;DHT22;7393;51.446;6.800;2024-03-06T13:59:59;14.70;99.90
14614;DHT22;7393;51.446;6.800;2024-03-06T14:02:27;14.60;99.90
14614;DHT22;7393;51.446;6.800;2024-03-06T14:04:53;14.50;99.90
14614;DHT22;7393;51.446;6.800;2024-03-06T14:07:20;14.50;99.90
14614;DHT22;7393;51.446;6.800;2024-03-06T14:09:49;14.40;99.90
14614;DHT22;7393;51.446;6.800;2024-03-06T14:12:15;14.40;99.90
14614;DHT22;7393;51.446;6.800;2024-03-06T14:14:42;14.40;99.90
14614;DHT22;7393;51.446;6.800;2024-03-06T14:17:10;14.40;99.90
14614;DHT22;7393;51.446;6.800;2024-03-06T14:19:39;14.40;99.90
14614;DHT22;7393;51.446;6.800;2024-03-06T14:22:07;14.30;99.90
14614;DHT22;7393;51.446;6.800;2024-03-06T14:24:33;14.30;99.90
14614;DHT22;7393;51.446;6.800;2024-03-06T14:27:01;14.20;99.90
14614;DHT22;7393;51.446;6.800;2024-03-06T14:29:28;14.10;99.90
14614;DHT22;7393;51.446;6.800;2024-03-06T14:31:55;14.10;99.90
14614;DHT22;7393;51.446;6.800;2024-03-06T14:34:22;14.00;99.90
14614;DHT22;7393;51.446;6.800;2024-03-06T14:36:51;14.00;99.90
14614;DHT22;7393;51.446;6.800;2024-03-06T14:39:17;13.90;99.90
14614;DHT22;7393;51.446;6.800;2024-03-06T14:41:47;13.90;99.90
14614;DHT22;7393;51.446;6.800;2024-03-06T14:44:14;13.90;99.90
14614;DHT22;7393;51.446;6.800;2024-03-06T14:46:41;13.80;99.90
14614;DHT22;7393;51.446;6.800;2024-03-06T14:49:09;13.70;99.90
14614;DHT22;7393;51.446;6.800;2024-03-06T14:51:36;13.70;99.90
14614;DHT22;7393;51.446;6.800;2024-03-06T14:54:04;13.60;99.90
14614;DHT22;7393;51.446;6.800;2024-03-06T14:56:31;13.60;99.90
14614;DHT22;7393;51.446;6.800;2024-03-06T14:58:58;13.50;99.90
14614;DHT22;7393;51.446;6.800;2024-03-06T15:01:25;13.50;99.90
14614;DHT22;7393;51.446;6.800;2024-03-06T15:03:52;13.50;99.90
14614;DHT22;7393;51.446;6.800;2024-03-06T15:06:19;13.40;99.90
14614;DHT22;7393;51.446;6.800;2024-03-06T15:08:46;13.30;99.90
14614;DHT22;7393;51.446;6.800;2024-03-06T15:11:14;13.30;99.90
14614;DHT22;7393;51.446;6.800;2024-03-06T15:13:41;13.20;99.90
14614;DHT22;7393;51.446;6.800;2024-03-06T15:16:08;13.20;99.90
14614;DHT22;7393;51.446;6.800;2024-03-06T15:18:35;13.10;99.90
14614;DHT22;7393;51.446;6.800;2024-03-06T15:21:02;13.00;99.90
14614;DHT22;7393;51.446;6.800;2024-03-06T15:23:29;13.00;99.90
14614;DHT22;7393;51.446;6.800;2024-03-06T15:25:58;13.00;99.90
14614;DHT22;7393;51.446;6.800;2024-03-06T15:28:26;12.90;99.90
14614;DHT22;7393;51.446;6.800;2024-03-06T15:30:53;12.90;99.90
14614;DHT22;7393;51.446;6.800;2024-03-06T15:33:19;12.80;99.90
14614;DHT22;7393;51.446;6.800;2024-03-06T15:35:46;12.80;99.90
14614;DHT22;7393;51.446;6.800;2024-03-06T15:38:13;12.70;99.90
14614;DHT22;7393;51.446;6.800;2024-03-06T15:40:39;12.70;99.90
14614;DHT22;7393;51.446;6.800;2024-03-06T15:43:06;12.70;99.90
14614;DHT22;7393;51.446;6.800;2024-03-06T15:45:35;12.60;99.90
14614;DHT22;7393;51.446;6.800;2024-03-06T15:48:02;12.50;99.90
14614;DHT22;7393;51.446;6.800;2024-03-06T15:50:29;12.50;99.90
14614;DHT22;7393;51.446;6.800;2024-03-06T15:52:55;12.50;99.90
14614;DHT22;7393;51.446;6.800;2024-03-06T15:55:22;12.40;99.90
14614;DHT22;7393;51.446;6.800;2024-03-06T15:57:49;12.40;99.90
14614;DHT22;7393;51.446;6.800;2024-03-06T16:00:16;12.40;99.90
14614;DHT22;7393;51.446;6.800;2024-03-06T16:02:45;12.30;99.90
14614;DHT22;7393;51.446;6.800;2024-03-06T16:05:12;12.30;99.90
14614;DHT22;7393;51.446;6.800;2024-03-06T16:07:38;12.30;99.90
14614;DHT22;7393;51.446;6.800;2024-03-06T16:10:06;12.20;99.90